<?xml version="1.0" encoding="UTF-8" standalone="no" ?>
<gpx xmlns="http://www.topografix.com/GPX/1/1" xmlns:xsi="http://www.w3.org/2001/XMLSchema-instance" xsi:schemaLocation="http://www.topografix.com/GPX/1/1 http://www.topografix.com/GPX/1/1/gpx.xsd" version="1.1" creator="VisuGPX - https://www.visugpx.com">
  <metadata>
    <name>boucles 6j</name>
    <desc><![CDATA[Très beau parcours assez facile.
Le sentier des crevasses a été refait, il est très sécurisé, aucun soucis (sauf déluge qui ravine tout).]]></desc>
  </metadata>
  <wpt lat="44.86906" lon="6.09161">
    <ele>1264</ele>
    <name><![CDATA[ref ]]></name>
  </wpt>
  <wpt lat="45.03139" lon="6.36429">
    <ele>1684</ele>
    <name><![CDATA[ref ]]></name>
  </wpt>
  <wpt lat="45.0817" lon="6.5079">
    <ele>2173</ele>
    <name><![CDATA[ref ]]></name>
  </wpt>
  <wpt lat="44.98024" lon="6.49642">
    <ele>1493</ele>
    <name><![CDATA[ref ]]></name>
  </wpt>
  <wpt lat="45.03426" lon="6.54413">
    <ele>1861</ele>
    <name><![CDATA[ref ]]></name>
  </wpt>
  <wpt lat="45.0262" lon="6.53183">
    <ele>2212</ele>
    <name><![CDATA[ref ]]></name>
  </wpt>
  <trk>
    <name><![CDATA[buffert drayer]]></name>
    <trkseg>
      <trkpt lat="45.01196" lon="6.57166">
        <ele>2079</ele>
        <time>2023-12-11T10:20:05.417Z</time>
      </trkpt>
      <trkpt lat="45.0124" lon="6.57138">
        <ele>2067</ele>
        <time>2023-12-11T10:20:54.159Z</time>
      </trkpt>
      <trkpt lat="45.01261" lon="6.57089">
        <ele>2061</ele>
        <time>2023-12-11T10:21:46.337Z</time>
      </trkpt>
      <trkpt lat="45.01295" lon="6.57129">
        <ele>2047</ele>
        <time>2023-12-11T10:22:54.562Z</time>
      </trkpt>
      <trkpt lat="45.01294" lon="6.57149">
        <ele>2044</ele>
        <time>2023-12-11T10:23:16.445Z</time>
      </trkpt>
      <trkpt lat="45.01306" lon="6.5718">
        <ele>2036</ele>
        <time>2023-12-11T10:23:52.977Z</time>
      </trkpt>
      <trkpt lat="45.01312" lon="6.57184">
        <ele>2034</ele>
        <time>2023-12-11T10:24:03.284Z</time>
      </trkpt>
      <trkpt lat="45.01327" lon="6.57199">
        <ele>2030</ele>
        <time>2023-12-11T10:24:30.136Z</time>
      </trkpt>
      <trkpt lat="45.01349" lon="6.57251">
        <ele>2016</ele>
        <time>2023-12-11T10:25:44.843Z</time>
      </trkpt>
      <trkpt lat="45.01353" lon="6.57286">
        <ele>2007</ele>
        <time>2023-12-11T10:26:14.756Z</time>
      </trkpt>
      <trkpt lat="45.01368" lon="6.57328">
        <ele>2004</ele>
        <time>2023-12-11T10:26:46.232Z</time>
      </trkpt>
      <trkpt lat="45.01379" lon="6.57393">
        <ele>1999</ele>
        <time>2023-12-11T10:27:32.662Z</time>
      </trkpt>
      <trkpt lat="45.01381" lon="6.57433">
        <ele>1994</ele>
        <time>2023-12-11T10:28:00.243Z</time>
      </trkpt>
      <trkpt lat="45.01392" lon="6.57465">
        <ele>1993</ele>
        <time>2023-12-11T10:28:24.373Z</time>
      </trkpt>
      <trkpt lat="45.01403" lon="6.57477">
        <ele>1993</ele>
        <time>2023-12-11T10:28:38.394Z</time>
      </trkpt>
      <trkpt lat="45.01413" lon="6.57537">
        <ele>1984</ele>
        <time>2023-12-11T10:29:28.460Z</time>
      </trkpt>
      <trkpt lat="45.01457" lon="6.57569">
        <ele>1975</ele>
        <time>2023-12-11T10:30:31.283Z</time>
      </trkpt>
      <trkpt lat="45.01482" lon="6.57617">
        <ele>1963</ele>
        <time>2023-12-11T10:31:17.353Z</time>
      </trkpt>
      <trkpt lat="45.01501" lon="6.57611">
        <ele>1960</ele>
        <time>2023-12-11T10:31:38.710Z</time>
      </trkpt>
      <trkpt lat="45.01517" lon="6.57586">
        <ele>1960</ele>
        <time>2023-12-11T10:32:04.577Z</time>
      </trkpt>
      <trkpt lat="45.01533" lon="6.57585">
        <ele>1956</ele>
        <time>2023-12-11T10:32:26.026Z</time>
      </trkpt>
      <trkpt lat="45.01544" lon="6.57593">
        <ele>1951</ele>
        <time>2023-12-11T10:32:47.420Z</time>
      </trkpt>
      <trkpt lat="45.01565" lon="6.57672">
        <ele>1931</ele>
        <time>2023-12-11T10:34:29.639Z</time>
      </trkpt>
      <trkpt lat="45.01567" lon="6.57724">
        <ele>1919</ele>
        <time>2023-12-11T10:35:02.174Z</time>
      </trkpt>
      <trkpt lat="45.01576" lon="6.57732">
        <ele>1917</ele>
        <time>2023-12-11T10:35:11.699Z</time>
      </trkpt>
      <trkpt lat="45.01607" lon="6.57683">
        <ele>1929</ele>
        <time>2023-12-11T10:35:53.986Z</time>
      </trkpt>
      <trkpt lat="45.01619" lon="6.57683">
        <ele>1929</ele>
        <time>2023-12-11T10:36:04.179Z</time>
      </trkpt>
      <trkpt lat="45.01626" lon="6.57745">
        <ele>1910</ele>
        <time>2023-12-11T10:37:01.325Z</time>
      </trkpt>
      <trkpt lat="45.01677" lon="6.57658">
        <ele>1900</ele>
        <time>2023-12-11T10:38:35.419Z</time>
      </trkpt>
      <trkpt lat="45.01719" lon="6.57608">
        <ele>1883</ele>
        <time>2023-12-11T10:39:33.583Z</time>
      </trkpt>
      <trkpt lat="45.01718" lon="6.57577">
        <ele>1883</ele>
        <time>2023-12-11T10:39:58.003Z</time>
      </trkpt>
      <trkpt lat="45.01712" lon="6.57561">
        <ele>1885</ele>
        <time>2023-12-11T10:40:09.828Z</time>
      </trkpt>
      <trkpt lat="45.01722" lon="6.57528">
        <ele>1879</ele>
        <time>2023-12-11T10:40:50.202Z</time>
      </trkpt>
      <trkpt lat="45.01802" lon="6.57353">
        <ele>1831</ele>
        <time>2023-12-11T10:45:45.627Z</time>
      </trkpt>
      <trkpt lat="45.01845" lon="6.57334">
        <ele>1804</ele>
        <time>2023-12-11T10:46:44.120Z</time>
      </trkpt>
      <trkpt lat="45.01851" lon="6.57336">
        <ele>1803</ele>
        <time>2023-12-11T10:46:52.337Z</time>
      </trkpt>
      <trkpt lat="45.01858" lon="6.57489">
        <ele>1793</ele>
        <time>2023-12-11T10:48:35.247Z</time>
      </trkpt>
      <trkpt lat="45.01857" lon="6.57582">
        <ele>1785</ele>
        <time>2023-12-11T10:49:41.788Z</time>
      </trkpt>
      <trkpt lat="45.01849" lon="6.5761">
        <ele>1784</ele>
        <time>2023-12-11T10:50:03.215Z</time>
      </trkpt>
      <trkpt lat="45.01853" lon="6.57728">
        <ele>1767</ele>
        <time>2023-12-11T10:51:43.013Z</time>
      </trkpt>
      <trkpt lat="45.01873" lon="6.57774">
        <ele>1759</ele>
        <time>2023-12-11T10:52:21.140Z</time>
      </trkpt>
      <trkpt lat="45.01877" lon="6.57855">
        <ele>1753</ele>
        <time>2023-12-11T10:53:18.020Z</time>
      </trkpt>
      <trkpt lat="45.01886" lon="6.57863">
        <ele>1751</ele>
        <time>2023-12-11T10:53:27.608Z</time>
      </trkpt>
      <trkpt lat="45.01888" lon="6.57864">
        <ele>1751</ele>
        <time>2023-12-11T10:53:29.743Z</time>
      </trkpt>
      <trkpt lat="45.019" lon="6.57865">
        <ele>1748</ele>
        <time>2023-12-11T10:53:41.533Z</time>
      </trkpt>
      <trkpt lat="45.01915" lon="6.57942">
        <ele>1744</ele>
        <time>2023-12-11T10:54:32.624Z</time>
      </trkpt>
      <trkpt lat="45.01922" lon="6.57968">
        <ele>1743</ele>
        <time>2023-12-11T10:54:50.549Z</time>
      </trkpt>
      <trkpt lat="45.0192" lon="6.58004">
        <ele>1741</ele>
        <time>2023-12-11T10:55:14.465Z</time>
      </trkpt>
      <trkpt lat="45.01989" lon="6.58049">
        <ele>1746</ele>
        <time>2023-12-11T10:56:33.066Z</time>
      </trkpt>
      <trkpt lat="45.02067" lon="6.58119">
        <ele>1756</ele>
        <time>2023-12-11T10:58:13.610Z</time>
      </trkpt>
      <trkpt lat="45.02087" lon="6.58148">
        <ele>1759</ele>
        <time>2023-12-11T10:58:47.123Z</time>
      </trkpt>
      <trkpt lat="45.0213" lon="6.5819">
        <ele>1766</ele>
        <time>2023-12-11T10:59:41.113Z</time>
      </trkpt>
      <trkpt lat="45.02094" lon="6.58385">
        <ele>1775</ele>
        <time>2023-12-11T11:02:04.857Z</time>
      </trkpt>
      <trkpt lat="45.02124" lon="6.58404">
        <ele>1779</ele>
        <time>2023-12-11T11:02:47.709Z</time>
      </trkpt>
      <trkpt lat="45.02154" lon="6.58405">
        <ele>1785</ele>
        <time>2023-12-11T11:03:28.335Z</time>
      </trkpt>
      <trkpt lat="45.02189" lon="6.58381">
        <ele>1790</ele>
        <time>2023-12-11T11:04:16.935Z</time>
      </trkpt>
      <trkpt lat="45.02201" lon="6.58358">
        <ele>1793</ele>
        <time>2023-12-11T11:04:44.189Z</time>
      </trkpt>
      <trkpt lat="45.02211" lon="6.58376">
        <ele>1796</ele>
        <time>2023-12-11T11:05:07.796Z</time>
      </trkpt>
      <trkpt lat="45.02221" lon="6.58386">
        <ele>1799</ele>
        <time>2023-12-11T11:05:27.584Z</time>
      </trkpt>
      <trkpt lat="45.02234" lon="6.58411">
        <ele>1804</ele>
        <time>2023-12-11T11:06:02.108Z</time>
      </trkpt>
      <trkpt lat="45.02234" lon="6.58497">
        <ele>1817</ele>
        <time>2023-12-11T11:07:14.180Z</time>
      </trkpt>
      <trkpt lat="45.02223" lon="6.58542">
        <ele>1816</ele>
        <time>2023-12-11T11:07:46.565Z</time>
      </trkpt>
      <trkpt lat="45.02221" lon="6.58556">
        <ele>1816</ele>
        <time>2023-12-11T11:07:56.948Z</time>
      </trkpt>
      <trkpt lat="45.02234" lon="6.58576">
        <ele>1820</ele>
        <time>2023-12-11T11:08:17.201Z</time>
      </trkpt>
      <trkpt lat="45.02251" lon="6.58626">
        <ele>1823</ele>
        <time>2023-12-11T11:08:57.098Z</time>
      </trkpt>
      <trkpt lat="45.0225" lon="6.58641">
        <ele>1820</ele>
        <time>2023-12-11T11:09:13.214Z</time>
      </trkpt>
      <trkpt lat="45.02256" lon="6.58631">
        <ele>1825</ele>
        <time>2023-12-11T11:09:28.072Z</time>
      </trkpt>
      <trkpt lat="45.02259" lon="6.5864">
        <ele>1825</ele>
        <time>2023-12-11T11:09:41.676Z</time>
      </trkpt>
      <trkpt lat="45.0228" lon="6.58555">
        <ele>1847</ele>
        <time>2023-12-11T11:12:35.936Z</time>
      </trkpt>
      <trkpt lat="45.02318" lon="6.58506">
        <ele>1869</ele>
        <time>2023-12-11T11:14:58.792Z</time>
      </trkpt>
      <trkpt lat="45.02326" lon="6.58541">
        <ele>1877</ele>
        <time>2023-12-11T11:15:46.009Z</time>
      </trkpt>
      <trkpt lat="45.02332" lon="6.58537">
        <ele>1880</ele>
        <time>2023-12-11T11:15:57.281Z</time>
      </trkpt>
      <trkpt lat="45.02335" lon="6.58515">
        <ele>1880</ele>
        <time>2023-12-11T11:16:25.149Z</time>
      </trkpt>
      <trkpt lat="45.0236" lon="6.58486">
        <ele>1889</ele>
        <time>2023-12-11T11:17:07.839Z</time>
      </trkpt>
      <trkpt lat="45.02358" lon="6.58538">
        <ele>1891</ele>
        <time>2023-12-11T11:17:57.109Z</time>
      </trkpt>
      <trkpt lat="45.02364" lon="6.58553">
        <ele>1894</ele>
        <time>2023-12-11T11:18:13.046Z</time>
      </trkpt>
      <trkpt lat="45.02391" lon="6.58502">
        <ele>1904</ele>
        <time>2023-12-11T11:19:12.449Z</time>
      </trkpt>
      <trkpt lat="45.02402" lon="6.58503">
        <ele>1909</ele>
        <time>2023-12-11T11:19:34.009Z</time>
      </trkpt>
      <trkpt lat="45.02396" lon="6.58531">
        <ele>1906</ele>
        <time>2023-12-11T11:20:20.017Z</time>
      </trkpt>
      <trkpt lat="45.02438" lon="6.58515">
        <ele>1927</ele>
        <time>2023-12-11T11:22:12.095Z</time>
      </trkpt>
      <trkpt lat="45.02459" lon="6.58516">
        <ele>1937</ele>
        <time>2023-12-11T11:23:09.225Z</time>
      </trkpt>
      <trkpt lat="45.0245" lon="6.5853">
        <ele>1934</ele>
        <time>2023-12-11T11:23:36.689Z</time>
      </trkpt>
      <trkpt lat="45.02463" lon="6.58525">
        <ele>1940</ele>
        <time>2023-12-11T11:23:58.545Z</time>
      </trkpt>
      <trkpt lat="45.02472" lon="6.58543">
        <ele>1945</ele>
        <time>2023-12-11T11:24:25.217Z</time>
      </trkpt>
      <trkpt lat="45.0249" lon="6.58543">
        <ele>1951</ele>
        <time>2023-12-11T11:24:53.449Z</time>
      </trkpt>
      <trkpt lat="45.02481" lon="6.58566">
        <ele>1950</ele>
        <time>2023-12-11T11:25:21.879Z</time>
      </trkpt>
      <trkpt lat="45.02487" lon="6.58595">
        <ele>1955</ele>
        <time>2023-12-11T11:25:46.176Z</time>
      </trkpt>
      <trkpt lat="45.02501" lon="6.58586">
        <ele>1960</ele>
        <time>2023-12-11T11:26:07.292Z</time>
      </trkpt>
      <trkpt lat="45.0253" lon="6.58537">
        <ele>1963</ele>
        <time>2023-12-11T11:27:04.994Z</time>
      </trkpt>
      <trkpt lat="45.02545" lon="6.58537">
        <ele>1969</ele>
        <time>2023-12-11T11:27:23.942Z</time>
      </trkpt>
      <trkpt lat="45.02566" lon="6.58479">
        <ele>1976</ele>
        <time>2023-12-11T11:28:17.573Z</time>
      </trkpt>
      <trkpt lat="45.02562" lon="6.58451">
        <ele>1974</ele>
        <time>2023-12-11T11:28:45.144Z</time>
      </trkpt>
      <trkpt lat="45.02575" lon="6.58427">
        <ele>1980</ele>
        <time>2023-12-11T11:29:16.058Z</time>
      </trkpt>
      <trkpt lat="45.02589" lon="6.58463">
        <ele>1989</ele>
        <time>2023-12-11T11:30:36.622Z</time>
      </trkpt>
      <trkpt lat="45.02607" lon="6.58476">
        <ele>2000</ele>
        <time>2023-12-11T11:31:26.766Z</time>
      </trkpt>
      <trkpt lat="45.02613" lon="6.58505">
        <ele>2007</ele>
        <time>2023-12-11T11:32:04.516Z</time>
      </trkpt>
      <trkpt lat="45.02619" lon="6.58493">
        <ele>2008</ele>
        <time>2023-12-11T11:32:17.541Z</time>
      </trkpt>
      <trkpt lat="45.0262" lon="6.58503">
        <ele>2010</ele>
        <time>2023-12-11T11:32:26.807Z</time>
      </trkpt>
      <trkpt lat="45.02625" lon="6.58472">
        <ele>2009</ele>
        <time>2023-12-11T11:32:54.415Z</time>
      </trkpt>
      <trkpt lat="45.02635" lon="6.58454">
        <ele>2012</ele>
        <time>2023-12-11T11:33:13.870Z</time>
      </trkpt>
      <trkpt lat="45.02645" lon="6.58496">
        <ele>2019</ele>
        <time>2023-12-11T11:34:02.368Z</time>
      </trkpt>
      <trkpt lat="45.02662" lon="6.58478">
        <ele>2025</ele>
        <time>2023-12-11T11:34:35.589Z</time>
      </trkpt>
      <trkpt lat="45.02674" lon="6.58543">
        <ele>2033</ele>
        <time>2023-12-11T11:36:14.648Z</time>
      </trkpt>
      <trkpt lat="45.02686" lon="6.58558">
        <ele>2039</ele>
        <time>2023-12-11T11:36:48.565Z</time>
      </trkpt>
      <trkpt lat="45.02719" lon="6.58527">
        <ele>2055</ele>
        <time>2023-12-11T11:38:09.352Z</time>
      </trkpt>
      <trkpt lat="45.02733" lon="6.58487">
        <ele>2059</ele>
        <time>2023-12-11T11:39:07.565Z</time>
      </trkpt>
      <trkpt lat="45.0275" lon="6.58523">
        <ele>2071</ele>
        <time>2023-12-11T11:39:51.399Z</time>
      </trkpt>
      <trkpt lat="45.02751" lon="6.5849">
        <ele>2069</ele>
        <time>2023-12-11T11:40:14.543Z</time>
      </trkpt>
      <trkpt lat="45.02767" lon="6.58429">
        <ele>2075</ele>
        <time>2023-12-11T11:41:17.497Z</time>
      </trkpt>
      <trkpt lat="45.0279" lon="6.58551">
        <ele>2092</ele>
        <time>2023-12-11T11:43:05.105Z</time>
      </trkpt>
      <trkpt lat="45.02796" lon="6.58497">
        <ele>2092</ele>
        <time>2023-12-11T11:43:57.505Z</time>
      </trkpt>
      <trkpt lat="45.02835" lon="6.58417">
        <ele>2110</ele>
        <time>2023-12-11T11:45:32.839Z</time>
      </trkpt>
      <trkpt lat="45.02828" lon="6.58386">
        <ele>2108</ele>
        <time>2023-12-11T11:45:53.415Z</time>
      </trkpt>
      <trkpt lat="45.02815" lon="6.58363">
        <ele>2102</ele>
        <time>2023-12-11T11:46:12.547Z</time>
      </trkpt>
      <trkpt lat="45.02805" lon="6.58318">
        <ele>2105</ele>
        <time>2023-12-11T11:47:11.694Z</time>
      </trkpt>
      <trkpt lat="45.02805" lon="6.58268">
        <ele>2119</ele>
        <time>2023-12-11T11:48:28.572Z</time>
      </trkpt>
      <trkpt lat="45.02833" lon="6.58156">
        <ele>2141</ele>
        <time>2023-12-11T11:50:54.963Z</time>
      </trkpt>
      <trkpt lat="45.0285" lon="6.58105">
        <ele>2149</ele>
        <time>2023-12-11T11:51:47.604Z</time>
      </trkpt>
      <trkpt lat="45.02857" lon="6.58065">
        <ele>2152</ele>
        <time>2023-12-11T11:52:52.861Z</time>
      </trkpt>
      <trkpt lat="45.02886" lon="6.58065">
        <ele>2167</ele>
        <time>2023-12-11T11:54:05.351Z</time>
      </trkpt>
      <trkpt lat="45.02897" lon="6.58048">
        <ele>2172</ele>
        <time>2023-12-11T11:54:33.254Z</time>
      </trkpt>
      <trkpt lat="45.02899" lon="6.58027">
        <ele>2173</ele>
        <time>2023-12-11T11:54:48.026Z</time>
      </trkpt>
      <trkpt lat="45.02893" lon="6.58001">
        <ele>2171</ele>
        <time>2023-12-11T11:55:05.652Z</time>
      </trkpt>
      <trkpt lat="45.02942" lon="6.57942">
        <ele>2173</ele>
        <time>2023-12-11T11:56:06.529Z</time>
      </trkpt>
      <trkpt lat="45.02952" lon="6.57917">
        <ele>2169</ele>
        <time>2023-12-11T11:56:25.427Z</time>
      </trkpt>
      <trkpt lat="45.02944" lon="6.57821">
        <ele>2156</ele>
        <time>2023-12-11T11:57:37.001Z</time>
      </trkpt>
      <trkpt lat="45.02932" lon="6.57753">
        <ele>2150</ele>
        <time>2023-12-11T11:58:26.107Z</time>
      </trkpt>
      <trkpt lat="45.02937" lon="6.57689">
        <ele>2162</ele>
        <time>2023-12-11T11:59:40.082Z</time>
      </trkpt>
      <trkpt lat="45.02934" lon="6.57663">
        <ele>2164</ele>
        <time>2023-12-11T12:00:09.936Z</time>
      </trkpt>
      <trkpt lat="45.02949" lon="6.57621">
        <ele>2172</ele>
        <time>2023-12-11T12:01:03.863Z</time>
      </trkpt>
      <trkpt lat="45.02972" lon="6.57594">
        <ele>2178</ele>
        <time>2023-12-11T12:01:47.747Z</time>
      </trkpt>
      <trkpt lat="45.03004" lon="6.57569">
        <ele>2185</ele>
        <time>2023-12-11T12:02:20.149Z</time>
      </trkpt>
      <trkpt lat="45.0304" lon="6.57493">
        <ele>2176</ele>
        <time>2023-12-11T12:03:17.737Z</time>
      </trkpt>
      <trkpt lat="45.03113" lon="6.5739">
        <ele>2184</ele>
        <time>2023-12-11T12:05:26.357Z</time>
      </trkpt>
      <trkpt lat="45.03175" lon="6.57355">
        <ele>2200</ele>
        <time>2023-12-11T12:06:54.999Z</time>
      </trkpt>
      <trkpt lat="45.03183" lon="6.57335">
        <ele>2197</ele>
        <time>2023-12-11T12:07:16.659Z</time>
      </trkpt>
      <trkpt lat="45.0322" lon="6.57308">
        <ele>2204</ele>
        <time>2023-12-11T12:08:04.944Z</time>
      </trkpt>
      <trkpt lat="45.03276" lon="6.5725">
        <ele>2211</ele>
        <time>2023-12-11T12:09:16.276Z</time>
      </trkpt>
      <trkpt lat="45.03316" lon="6.57213">
        <ele>2214</ele>
        <time>2023-12-11T12:10:00.214Z</time>
      </trkpt>
      <trkpt lat="45.03323" lon="6.57175">
        <ele>2212</ele>
        <time>2023-12-11T12:10:27.124Z</time>
      </trkpt>
      <trkpt lat="45.03355" lon="6.57107">
        <ele>2219</ele>
        <time>2023-12-11T12:11:18.660Z</time>
      </trkpt>
      <trkpt lat="45.0335" lon="6.57065">
        <ele>2209</ele>
        <time>2023-12-11T12:11:45.540Z</time>
      </trkpt>
      <trkpt lat="45.03378" lon="6.56992">
        <ele>2219</ele>
        <time>2023-12-11T12:12:56.221Z</time>
      </trkpt>
      <trkpt lat="45.03383" lon="6.56967">
        <ele>2219</ele>
        <time>2023-12-11T12:13:18.446Z</time>
      </trkpt>
      <trkpt lat="45.03403" lon="6.56939">
        <ele>2223</ele>
        <time>2023-12-11T12:13:44.863Z</time>
      </trkpt>
      <trkpt lat="45.03405" lon="6.56903">
        <ele>2221</ele>
        <time>2023-12-11T12:14:14.215Z</time>
      </trkpt>
      <trkpt lat="45.03362" lon="6.56812">
        <ele>2203</ele>
        <time>2023-12-11T12:15:31.357Z</time>
      </trkpt>
      <trkpt lat="45.03355" lon="6.56759">
        <ele>2204</ele>
        <time>2023-12-11T12:16:37.469Z</time>
      </trkpt>
      <trkpt lat="45.03373" lon="6.56728">
        <ele>2219</ele>
        <time>2023-12-11T12:17:45.303Z</time>
      </trkpt>
      <trkpt lat="45.03378" lon="6.56696">
        <ele>2221</ele>
        <time>2023-12-11T12:18:16.338Z</time>
      </trkpt>
      <trkpt lat="45.03413" lon="6.5665">
        <ele>2231</ele>
        <time>2023-12-11T12:19:05.908Z</time>
      </trkpt>
      <trkpt lat="45.03429" lon="6.56606">
        <ele>2228</ele>
        <time>2023-12-11T12:19:38.785Z</time>
      </trkpt>
      <trkpt lat="45.03501" lon="6.56476">
        <ele>2236</ele>
        <time>2023-12-11T12:21:33.355Z</time>
      </trkpt>
      <trkpt lat="45.03518" lon="6.56466">
        <ele>2239</ele>
        <time>2023-12-11T12:21:51.666Z</time>
      </trkpt>
      <trkpt lat="45.03541" lon="6.56418">
        <ele>2238</ele>
        <time>2023-12-11T12:22:27.994Z</time>
      </trkpt>
      <trkpt lat="45.03557" lon="6.56329">
        <ele>2236</ele>
        <time>2023-12-11T12:23:30.488Z</time>
      </trkpt>
      <trkpt lat="45.03568" lon="6.56302">
        <ele>2237</ele>
        <time>2023-12-11T12:23:51.294Z</time>
      </trkpt>
      <trkpt lat="45.03603" lon="6.56272">
        <ele>2243</ele>
        <time>2023-12-11T12:24:51.509Z</time>
      </trkpt>
      <trkpt lat="45.0361" lon="6.56252">
        <ele>2244</ele>
        <time>2023-12-11T12:25:14.163Z</time>
      </trkpt>
      <trkpt lat="45.03639" lon="6.56232">
        <ele>2254</ele>
        <time>2023-12-11T12:26:26.525Z</time>
      </trkpt>
      <trkpt lat="45.03664" lon="6.56223">
        <ele>2262</ele>
        <time>2023-12-11T12:26:55.510Z</time>
      </trkpt>
      <trkpt lat="45.03707" lon="6.56183">
        <ele>2263</ele>
        <time>2023-12-11T12:27:50.186Z</time>
      </trkpt>
      <trkpt lat="45.03782" lon="6.56073">
        <ele>2278</ele>
        <time>2023-12-11T12:29:27.529Z</time>
      </trkpt>
      <trkpt lat="45.0378" lon="6.56059">
        <ele>2276</ele>
        <time>2023-12-11T12:29:36.498Z</time>
      </trkpt>
      <trkpt lat="45.03745" lon="6.56023">
        <ele>2264</ele>
        <time>2023-12-11T12:30:14.941Z</time>
      </trkpt>
      <trkpt lat="45.03744" lon="6.56009">
        <ele>2264</ele>
        <time>2023-12-11T12:30:24.222Z</time>
      </trkpt>
      <trkpt lat="45.03789" lon="6.56021">
        <ele>2277</ele>
        <time>2023-12-11T12:31:17.757Z</time>
      </trkpt>
      <trkpt lat="45.03788" lon="6.55996">
        <ele>2279</ele>
        <time>2023-12-11T12:31:37.134Z</time>
      </trkpt>
      <trkpt lat="45.03773" lon="6.55985">
        <ele>2274</ele>
        <time>2023-12-11T12:31:54.449Z</time>
      </trkpt>
      <trkpt lat="45.03769" lon="6.5597">
        <ele>2274</ele>
        <time>2023-12-11T12:32:04.701Z</time>
      </trkpt>
      <trkpt lat="45.03774" lon="6.55961">
        <ele>2276</ele>
        <time>2023-12-11T12:32:15.072Z</time>
      </trkpt>
      <trkpt lat="45.03788" lon="6.55971">
        <ele>2281</ele>
        <time>2023-12-11T12:32:52.585Z</time>
      </trkpt>
      <trkpt lat="45.03806" lon="6.55966">
        <ele>2289</ele>
        <time>2023-12-11T12:33:17.678Z</time>
      </trkpt>
      <trkpt lat="45.03806" lon="6.55955">
        <ele>2291</ele>
        <time>2023-12-11T12:33:25.606Z</time>
      </trkpt>
      <trkpt lat="45.03793" lon="6.55937">
        <ele>2286</ele>
        <time>2023-12-11T12:33:45.862Z</time>
      </trkpt>
      <trkpt lat="45.03791" lon="6.55925">
        <ele>2286</ele>
        <time>2023-12-11T12:33:54.835Z</time>
      </trkpt>
      <trkpt lat="45.03806" lon="6.55906">
        <ele>2295</ele>
        <time>2023-12-11T12:34:23.583Z</time>
      </trkpt>
      <trkpt lat="45.03812" lon="6.55877">
        <ele>2297</ele>
        <time>2023-12-11T12:34:50.652Z</time>
      </trkpt>
      <trkpt lat="45.03829" lon="6.55865">
        <ele>2299</ele>
        <time>2023-12-11T12:35:12.356Z</time>
      </trkpt>
      <trkpt lat="45.03957" lon="6.55727">
        <ele>2318</ele>
        <time>2023-12-11T12:38:05.985Z</time>
      </trkpt>
      <trkpt lat="45.0399" lon="6.55699">
        <ele>2320</ele>
        <time>2023-12-11T12:38:43.327Z</time>
      </trkpt>
      <trkpt lat="45.04091" lon="6.55648">
        <ele>2325</ele>
        <time>2023-12-11T12:40:18.934Z</time>
      </trkpt>
      <trkpt lat="45.04194" lon="6.55508">
        <ele>2309</ele>
        <time>2023-12-11T12:42:29.714Z</time>
      </trkpt>
      <trkpt lat="45.0422" lon="6.55479">
        <ele>2311</ele>
        <time>2023-12-11T12:43:00.356Z</time>
      </trkpt>
      <trkpt lat="45.04329" lon="6.55395">
        <ele>2311</ele>
        <time>2023-12-11T12:44:51.111Z</time>
      </trkpt>
      <trkpt lat="45.04362" lon="6.55345">
        <ele>2305</ele>
        <time>2023-12-11T12:45:33.643Z</time>
      </trkpt>
      <trkpt lat="45.04425" lon="6.55302">
        <ele>2305</ele>
        <time>2023-12-11T12:46:37.548Z</time>
      </trkpt>
      <trkpt lat="45.0444" lon="6.55286">
        <ele>2304</ele>
        <time>2023-12-11T12:46:54.541Z</time>
      </trkpt>
      <trkpt lat="45.04463" lon="6.55289">
        <ele>2306</ele>
        <time>2023-12-11T12:47:15.770Z</time>
      </trkpt>
      <trkpt lat="45.04485" lon="6.55276">
        <ele>2305</ele>
        <time>2023-12-11T12:47:37.672Z</time>
      </trkpt>
      <trkpt lat="45.04493" lon="6.55278">
        <ele>2306</ele>
        <time>2023-12-11T12:47:45.048Z</time>
      </trkpt>
      <trkpt lat="45.04542" lon="6.55261">
        <ele>2308</ele>
        <time>2023-12-11T12:48:31.244Z</time>
      </trkpt>
      <trkpt lat="45.04603" lon="6.55228">
        <ele>2308</ele>
        <time>2023-12-11T12:49:31.156Z</time>
      </trkpt>
      <trkpt lat="45.04618" lon="6.5519">
        <ele>2300</ele>
        <time>2023-12-11T12:50:01.254Z</time>
      </trkpt>
      <trkpt lat="45.04644" lon="6.55178">
        <ele>2301</ele>
        <time>2023-12-11T12:50:25.579Z</time>
      </trkpt>
      <trkpt lat="45.04683" lon="6.55152">
        <ele>2300</ele>
        <time>2023-12-11T12:51:03.503Z</time>
      </trkpt>
      <trkpt lat="45.04704" lon="6.55121">
        <ele>2297</ele>
        <time>2023-12-11T12:51:30.865Z</time>
      </trkpt>
      <trkpt lat="45.0474" lon="6.55086">
        <ele>2298</ele>
        <time>2023-12-11T12:52:10.525Z</time>
      </trkpt>
      <trkpt lat="45.04749" lon="6.55036">
        <ele>2291</ele>
        <time>2023-12-11T12:52:50.842Z</time>
      </trkpt>
      <trkpt lat="45.0476" lon="6.55015">
        <ele>2290</ele>
        <time>2023-12-11T12:53:08.281Z</time>
      </trkpt>
      <trkpt lat="45.04759" lon="6.54997">
        <ele>2286</ele>
        <time>2023-12-11T12:53:20.580Z</time>
      </trkpt>
      <trkpt lat="45.04754" lon="6.54986">
        <ele>2284</ele>
        <time>2023-12-11T12:53:28.787Z</time>
      </trkpt>
      <trkpt lat="45.04788" lon="6.54934">
        <ele>2282</ele>
        <time>2023-12-11T12:54:14.990Z</time>
      </trkpt>
      <trkpt lat="45.04815" lon="6.5491">
        <ele>2286</ele>
        <time>2023-12-11T12:54:43.745Z</time>
      </trkpt>
      <trkpt lat="45.04832" lon="6.54882">
        <ele>2282</ele>
        <time>2023-12-11T12:55:06.903Z</time>
      </trkpt>
      <trkpt lat="45.04869" lon="6.5487">
        <ele>2286</ele>
        <time>2023-12-11T12:55:43.127Z</time>
      </trkpt>
      <trkpt lat="45.04915" lon="6.54824">
        <ele>2271</ele>
        <time>2023-12-11T12:57:01.612Z</time>
      </trkpt>
      <trkpt lat="45.04901" lon="6.54824">
        <ele>2268</ele>
        <time>2023-12-11T12:57:19.746Z</time>
      </trkpt>
      <trkpt lat="45.04909" lon="6.54812">
        <ele>2264</ele>
        <time>2023-12-11T12:57:34.260Z</time>
      </trkpt>
      <trkpt lat="45.04848" lon="6.54812">
        <ele>2253</ele>
        <time>2023-12-11T12:58:39.439Z</time>
      </trkpt>
      <trkpt lat="45.04826" lon="6.54823">
        <ele>2250</ele>
        <time>2023-12-11T12:59:10.848Z</time>
      </trkpt>
      <trkpt lat="45.04781" lon="6.54819">
        <ele>2235</ele>
        <time>2023-12-11T13:00:40.164Z</time>
      </trkpt>
      <trkpt lat="45.04786" lon="6.54808">
        <ele>2232</ele>
        <time>2023-12-11T13:00:53.535Z</time>
      </trkpt>
      <trkpt lat="45.04781" lon="6.54787">
        <ele>2223</ele>
        <time>2023-12-11T13:01:13.287Z</time>
      </trkpt>
      <trkpt lat="45.0481" lon="6.54744">
        <ele>2220</ele>
        <time>2023-12-11T13:01:54.307Z</time>
      </trkpt>
      <trkpt lat="45.04808" lon="6.5472">
        <ele>2215</ele>
        <time>2023-12-11T13:02:11.554Z</time>
      </trkpt>
      <trkpt lat="45.04831" lon="6.54665">
        <ele>2209</ele>
        <time>2023-12-11T13:03:10.709Z</time>
      </trkpt>
      <trkpt lat="45.04836" lon="6.54625">
        <ele>2197</ele>
        <time>2023-12-11T13:03:45.972Z</time>
      </trkpt>
      <trkpt lat="45.0484" lon="6.54615">
        <ele>2196</ele>
        <time>2023-12-11T13:03:56.250Z</time>
      </trkpt>
      <trkpt lat="45.04804" lon="6.54647">
        <ele>2192</ele>
        <time>2023-12-11T13:04:42.486Z</time>
      </trkpt>
      <trkpt lat="45.04748" lon="6.54675">
        <ele>2178</ele>
        <time>2023-12-11T13:05:54.286Z</time>
      </trkpt>
      <trkpt lat="45.04767" lon="6.54631">
        <ele>2172</ele>
        <time>2023-12-11T13:06:38.587Z</time>
      </trkpt>
      <trkpt lat="45.04779" lon="6.54572">
        <ele>2161</ele>
        <time>2023-12-11T13:07:27.490Z</time>
      </trkpt>
      <trkpt lat="45.04741" lon="6.54602">
        <ele>2156</ele>
        <time>2023-12-11T13:08:08.577Z</time>
      </trkpt>
      <trkpt lat="45.04721" lon="6.54621">
        <ele>2154</ele>
        <time>2023-12-11T13:08:31.693Z</time>
      </trkpt>
      <trkpt lat="45.04735" lon="6.54584">
        <ele>2150</ele>
        <time>2023-12-11T13:08:58.726Z</time>
      </trkpt>
      <trkpt lat="45.0471" lon="6.54614">
        <ele>2150</ele>
        <time>2023-12-11T13:09:30.017Z</time>
      </trkpt>
      <trkpt lat="45.04722" lon="6.54568">
        <ele>2143</ele>
        <time>2023-12-11T13:10:18.174Z</time>
      </trkpt>
      <trkpt lat="45.04715" lon="6.54538">
        <ele>2135</ele>
        <time>2023-12-11T13:10:47.566Z</time>
      </trkpt>
      <trkpt lat="45.04714" lon="6.54487">
        <ele>2129</ele>
        <time>2023-12-11T13:11:26.816Z</time>
      </trkpt>
      <trkpt lat="45.04712" lon="6.54477">
        <ele>2127</ele>
        <time>2023-12-11T13:11:34.967Z</time>
      </trkpt>
      <trkpt lat="45.04704" lon="6.5447">
        <ele>2124</ele>
        <time>2023-12-11T13:11:45.559Z</time>
      </trkpt>
      <trkpt lat="45.04703" lon="6.54449">
        <ele>2123</ele>
        <time>2023-12-11T13:11:59.224Z</time>
      </trkpt>
      <trkpt lat="45.04682" lon="6.54441">
        <ele>2118</ele>
        <time>2023-12-11T13:12:18.481Z</time>
      </trkpt>
      <trkpt lat="45.04702" lon="6.54406">
        <ele>2122</ele>
        <time>2023-12-11T13:12:47.399Z</time>
      </trkpt>
      <trkpt lat="45.04665" lon="6.54405">
        <ele>2113</ele>
        <time>2023-12-11T13:13:21.722Z</time>
      </trkpt>
      <trkpt lat="45.04691" lon="6.54387">
        <ele>2117</ele>
        <time>2023-12-11T13:13:52.124Z</time>
      </trkpt>
      <trkpt lat="45.04736" lon="6.54355">
        <ele>2121</ele>
        <time>2023-12-11T13:14:47.699Z</time>
      </trkpt>
      <trkpt lat="45.0476" lon="6.54358">
        <ele>2125</ele>
        <time>2023-12-11T13:15:19.745Z</time>
      </trkpt>
      <trkpt lat="45.04818" lon="6.54335">
        <ele>2135</ele>
        <time>2023-12-11T13:16:22.830Z</time>
      </trkpt>
      <trkpt lat="45.04853" lon="6.5426">
        <ele>2137</ele>
        <time>2023-12-11T13:17:30.872Z</time>
      </trkpt>
      <trkpt lat="45.04923" lon="6.54203">
        <ele>2150</ele>
        <time>2023-12-11T13:19:28.555Z</time>
      </trkpt>
      <trkpt lat="45.04968" lon="6.54182">
        <ele>2161</ele>
        <time>2023-12-11T13:20:58.988Z</time>
      </trkpt>
      <trkpt lat="45.05014" lon="6.54183">
        <ele>2175</ele>
        <time>2023-12-11T13:22:07.986Z</time>
      </trkpt>
      <trkpt lat="45.05085" lon="6.54181">
        <ele>2184</ele>
        <time>2023-12-11T13:23:31.878Z</time>
      </trkpt>
      <trkpt lat="45.0513" lon="6.54168">
        <ele>2190</ele>
        <time>2023-12-11T13:24:28.972Z</time>
      </trkpt>
      <trkpt lat="45.05166" lon="6.54183">
        <ele>2196</ele>
        <time>2023-12-11T13:25:20.544Z</time>
      </trkpt>
      <trkpt lat="45.05182" lon="6.54216">
        <ele>2201</ele>
        <time>2023-12-11T13:25:59.352Z</time>
      </trkpt>
      <trkpt lat="45.05201" lon="6.54206">
        <ele>2200</ele>
        <time>2023-12-11T13:26:28.002Z</time>
      </trkpt>
      <trkpt lat="45.05285" lon="6.54217">
        <ele>2219</ele>
        <time>2023-12-11T13:28:29.672Z</time>
      </trkpt>
      <trkpt lat="45.05422" lon="6.54173">
        <ele>2242</ele>
        <time>2023-12-11T13:31:06.869Z</time>
      </trkpt>
      <trkpt lat="45.05469" lon="6.54135">
        <ele>2241</ele>
        <time>2023-12-11T13:31:54.601Z</time>
      </trkpt>
      <trkpt lat="45.05499" lon="6.54093">
        <ele>2238</ele>
        <time>2023-12-11T13:32:33.952Z</time>
      </trkpt>
      <trkpt lat="45.05585" lon="6.54037">
        <ele>2243</ele>
        <time>2023-12-11T13:34:09.349Z</time>
      </trkpt>
      <trkpt lat="45.05683" lon="6.54023">
        <ele>2253</ele>
        <time>2023-12-11T13:35:45.441Z</time>
      </trkpt>
      <trkpt lat="45.05711" lon="6.53993">
        <ele>2250</ele>
        <time>2023-12-11T13:36:17.284Z</time>
      </trkpt>
      <trkpt lat="45.05727" lon="6.53965">
        <ele>2249</ele>
        <time>2023-12-11T13:36:42.067Z</time>
      </trkpt>
      <trkpt lat="45.05772" lon="6.5393">
        <ele>2255</ele>
        <time>2023-12-11T13:37:35.378Z</time>
      </trkpt>
      <trkpt lat="45.05792" lon="6.53927">
        <ele>2257</ele>
        <time>2023-12-11T13:37:55.508Z</time>
      </trkpt>
      <trkpt lat="45.05849" lon="6.53908">
        <ele>2260</ele>
        <time>2023-12-11T13:38:51.447Z</time>
      </trkpt>
      <trkpt lat="45.05866" lon="6.53912">
        <ele>2261</ele>
        <time>2023-12-11T13:39:08.559Z</time>
      </trkpt>
      <trkpt lat="45.05885" lon="6.53896">
        <ele>2261</ele>
        <time>2023-12-11T13:39:29.461Z</time>
      </trkpt>
      <trkpt lat="45.0594" lon="6.53858">
        <ele>2265</ele>
        <time>2023-12-11T13:40:29.314Z</time>
      </trkpt>
      <trkpt lat="45.05989" lon="6.53807">
        <ele>2268</ele>
        <time>2023-12-11T13:41:27.167Z</time>
      </trkpt>
      <trkpt lat="45.05998" lon="6.53791">
        <ele>2267</ele>
        <time>2023-12-11T13:41:40.721Z</time>
      </trkpt>
      <trkpt lat="45.06117" lon="6.53716">
        <ele>2272</ele>
        <time>2023-12-11T13:43:39.671Z</time>
      </trkpt>
      <trkpt lat="45.06129" lon="6.53678">
        <ele>2269</ele>
        <time>2023-12-11T13:44:06.183Z</time>
      </trkpt>
      <trkpt lat="45.06212" lon="6.53655">
        <ele>2273</ele>
        <time>2023-12-11T13:45:21.586Z</time>
      </trkpt>
      <trkpt lat="45.06213" lon="6.5364">
        <ele>2271</ele>
        <time>2023-12-11T13:45:31.025Z</time>
      </trkpt>
      <trkpt lat="45.06179" lon="6.5362">
        <ele>2266</ele>
        <time>2023-12-11T13:46:10.225Z</time>
      </trkpt>
      <trkpt lat="45.06167" lon="6.53582">
        <ele>2260</ele>
        <time>2023-12-11T13:46:45.790Z</time>
      </trkpt>
      <trkpt lat="45.06171" lon="6.53571">
        <ele>2258</ele>
        <time>2023-12-11T13:46:56.333Z</time>
      </trkpt>
      <trkpt lat="45.06164" lon="6.53545">
        <ele>2254</ele>
        <time>2023-12-11T13:47:18.264Z</time>
      </trkpt>
      <trkpt lat="45.06168" lon="6.53527">
        <ele>2251</ele>
        <time>2023-12-11T13:47:33.686Z</time>
      </trkpt>
      <trkpt lat="45.06181" lon="6.53485">
        <ele>2246</ele>
        <time>2023-12-11T13:48:20.765Z</time>
      </trkpt>
      <trkpt lat="45.06178" lon="6.53464">
        <ele>2238</ele>
        <time>2023-12-11T13:48:46.609Z</time>
      </trkpt>
      <trkpt lat="45.06162" lon="6.5346">
        <ele>2233</ele>
        <time>2023-12-11T13:49:28.682Z</time>
      </trkpt>
      <trkpt lat="45.06161" lon="6.53445">
        <ele>2226</ele>
        <time>2023-12-11T13:49:56.048Z</time>
      </trkpt>
      <trkpt lat="45.0615" lon="6.53432">
        <ele>2218</ele>
        <time>2023-12-11T13:50:29.423Z</time>
      </trkpt>
      <trkpt lat="45.06146" lon="6.5341">
        <ele>2209</ele>
        <time>2023-12-11T13:51:05.268Z</time>
      </trkpt>
      <trkpt lat="45.06122" lon="6.53416">
        <ele>2203</ele>
        <time>2023-12-11T13:51:50.522Z</time>
      </trkpt>
      <trkpt lat="45.06117" lon="6.53409">
        <ele>2200</ele>
        <time>2023-12-11T13:52:05.135Z</time>
      </trkpt>
      <trkpt lat="45.0609" lon="6.53349">
        <ele>2179</ele>
        <time>2023-12-11T13:53:51.077Z</time>
      </trkpt>
      <trkpt lat="45.06095" lon="6.53318">
        <ele>2170</ele>
        <time>2023-12-11T13:54:46.633Z</time>
      </trkpt>
      <trkpt lat="45.06093" lon="6.53293">
        <ele>2161</ele>
        <time>2023-12-11T13:55:25.169Z</time>
      </trkpt>
      <trkpt lat="45.06086" lon="6.53283">
        <ele>2155</ele>
        <time>2023-12-11T13:55:45.467Z</time>
      </trkpt>
      <trkpt lat="45.0609" lon="6.5327">
        <ele>2153</ele>
        <time>2023-12-11T13:56:04.754Z</time>
      </trkpt>
      <trkpt lat="45.06088" lon="6.53263">
        <ele>2151</ele>
        <time>2023-12-11T13:56:14.570Z</time>
      </trkpt>
      <trkpt lat="45.06082" lon="6.53226">
        <ele>2143</ele>
        <time>2023-12-11T13:56:57.120Z</time>
      </trkpt>
      <trkpt lat="45.06064" lon="6.53221">
        <ele>2136</ele>
        <time>2023-12-11T13:57:31.872Z</time>
      </trkpt>
      <trkpt lat="45.06064" lon="6.53199">
        <ele>2132</ele>
        <time>2023-12-11T13:58:03.151Z</time>
      </trkpt>
      <trkpt lat="45.06057" lon="6.53171">
        <ele>2122</ele>
        <time>2023-12-11T13:58:42.009Z</time>
      </trkpt>
      <trkpt lat="45.06054" lon="6.53163">
        <ele>2119</ele>
        <time>2023-12-11T13:58:55.128Z</time>
      </trkpt>
      <trkpt lat="45.06043" lon="6.53164">
        <ele>2116</ele>
        <time>2023-12-11T13:59:16.572Z</time>
      </trkpt>
      <trkpt lat="45.06021" lon="6.53134">
        <ele>2105</ele>
        <time>2023-12-11T14:00:03.733Z</time>
      </trkpt>
      <trkpt lat="45.06001" lon="6.53126">
        <ele>2100</ele>
        <time>2023-12-11T14:00:34.248Z</time>
      </trkpt>
      <trkpt lat="45.05975" lon="6.53124">
        <ele>2093</ele>
        <time>2023-12-11T14:01:12.072Z</time>
      </trkpt>
      <trkpt lat="45.05951" lon="6.53133">
        <ele>2086</ele>
        <time>2023-12-11T14:01:38.904Z</time>
      </trkpt>
      <trkpt lat="45.05935" lon="6.53131">
        <ele>2081</ele>
        <time>2023-12-11T14:01:54.765Z</time>
      </trkpt>
      <trkpt lat="45.05943" lon="6.53113">
        <ele>2083</ele>
        <time>2023-12-11T14:02:08.745Z</time>
      </trkpt>
      <trkpt lat="45.05949" lon="6.53078">
        <ele>2082</ele>
        <time>2023-12-11T14:02:41.786Z</time>
      </trkpt>
      <trkpt lat="45.05937" lon="6.53055">
        <ele>2074</ele>
        <time>2023-12-11T14:03:12.185Z</time>
      </trkpt>
      <trkpt lat="45.05935" lon="6.53044">
        <ele>2070</ele>
        <time>2023-12-11T14:03:28.014Z</time>
      </trkpt>
      <trkpt lat="45.05925" lon="6.53029">
        <ele>2063</ele>
        <time>2023-12-11T14:03:57.150Z</time>
      </trkpt>
      <trkpt lat="45.05927" lon="6.53021">
        <ele>2061</ele>
        <time>2023-12-11T14:04:09.081Z</time>
      </trkpt>
      <trkpt lat="45.05923" lon="6.52985">
        <ele>2053</ele>
        <time>2023-12-11T14:04:35.381Z</time>
      </trkpt>
      <trkpt lat="45.05936" lon="6.52965">
        <ele>2054</ele>
        <time>2023-12-11T14:04:55.659Z</time>
      </trkpt>
      <trkpt lat="45.05941" lon="6.52944">
        <ele>2052</ele>
        <time>2023-12-11T14:05:17.701Z</time>
      </trkpt>
      <trkpt lat="45.05936" lon="6.52941">
        <ele>2051</ele>
        <time>2023-12-11T14:05:25.374Z</time>
      </trkpt>
      <trkpt lat="45.05941" lon="6.52919">
        <ele>2047</ele>
        <time>2023-12-11T14:05:54.593Z</time>
      </trkpt>
      <trkpt lat="45.05938" lon="6.52866">
        <ele>2028</ele>
        <time>2023-12-11T14:07:08.897Z</time>
      </trkpt>
      <trkpt lat="45.05931" lon="6.52833">
        <ele>2023</ele>
        <time>2023-12-11T14:07:30.774Z</time>
      </trkpt>
      <trkpt lat="45.05955" lon="6.52772">
        <ele>2024</ele>
        <time>2023-12-11T14:08:14.775Z</time>
      </trkpt>
      <trkpt lat="45.05953" lon="6.52748">
        <ele>2021</ele>
        <time>2023-12-11T14:08:30.201Z</time>
      </trkpt>
      <trkpt lat="45.05979" lon="6.52705">
        <ele>2021</ele>
        <time>2023-12-11T14:09:06.040Z</time>
      </trkpt>
      <trkpt lat="45.05977" lon="6.52692">
        <ele>2020</ele>
        <time>2023-12-11T14:09:14.880Z</time>
      </trkpt>
      <trkpt lat="45.05949" lon="6.5267">
        <ele>2017</ele>
        <time>2023-12-11T14:09:43.178Z</time>
      </trkpt>
      <trkpt lat="45.05949" lon="6.52661">
        <ele>2017</ele>
        <time>2023-12-11T14:09:49.311Z</time>
      </trkpt>
      <trkpt lat="45.05957" lon="6.52651">
        <ele>2018</ele>
        <time>2023-12-11T14:09:59.104Z</time>
      </trkpt>
      <trkpt lat="45.05955" lon="6.52625">
        <ele>2020</ele>
        <time>2023-12-11T14:10:16.753Z</time>
      </trkpt>
      <trkpt lat="45.05934" lon="6.52602">
        <ele>2020</ele>
        <time>2023-12-11T14:10:42.292Z</time>
      </trkpt>
      <trkpt lat="45.05928" lon="6.52574">
        <ele>2021</ele>
        <time>2023-12-11T14:11:02.330Z</time>
      </trkpt>
      <trkpt lat="45.05934" lon="6.52557">
        <ele>2022</ele>
        <time>2023-12-11T14:11:15.665Z</time>
      </trkpt>
      <trkpt lat="45.05977" lon="6.52518">
        <ele>2026</ele>
        <time>2023-12-11T14:12:07.445Z</time>
      </trkpt>
      <trkpt lat="45.05997" lon="6.52487">
        <ele>2028</ele>
        <time>2023-12-11T14:12:36.654Z</time>
      </trkpt>
      <trkpt lat="45.06007" lon="6.52477">
        <ele>2028</ele>
        <time>2023-12-11T14:12:48.431Z</time>
      </trkpt>
      <trkpt lat="45.06019" lon="6.52484">
        <ele>2029</ele>
        <time>2023-12-11T14:13:00.232Z</time>
      </trkpt>
      <trkpt lat="45.06048" lon="6.52468">
        <ele>2030</ele>
        <time>2023-12-11T14:13:30.169Z</time>
      </trkpt>
      <trkpt lat="45.0609" lon="6.52429">
        <ele>2033</ele>
        <time>2023-12-11T14:14:17.784Z</time>
      </trkpt>
      <trkpt lat="45.06128" lon="6.52406">
        <ele>2033</ele>
        <time>2023-12-11T14:14:56.464Z</time>
      </trkpt>
      <trkpt lat="45.06154" lon="6.52373">
        <ele>2035</ele>
        <time>2023-12-11T14:15:32.238Z</time>
      </trkpt>
      <trkpt lat="45.06261" lon="6.52291">
        <ele>2047</ele>
        <time>2023-12-11T14:17:49.719Z</time>
      </trkpt>
      <trkpt lat="45.06301" lon="6.52268">
        <ele>2054</ele>
        <time>2023-12-11T14:18:32.386Z</time>
      </trkpt>
      <trkpt lat="45.06374" lon="6.52204">
        <ele>2056</ele>
        <time>2023-12-11T14:19:49.382Z</time>
      </trkpt>
      <trkpt lat="45.06397" lon="6.52166">
        <ele>2053</ele>
        <time>2023-12-11T14:20:28.372Z</time>
      </trkpt>
      <trkpt lat="45.06463" lon="6.52126">
        <ele>2068</ele>
        <time>2023-12-11T14:21:54.897Z</time>
      </trkpt>
      <trkpt lat="45.06543" lon="6.52055">
        <ele>2075</ele>
        <time>2023-12-11T14:23:31.536Z</time>
      </trkpt>
      <trkpt lat="45.06558" lon="6.52029">
        <ele>2078</ele>
        <time>2023-12-11T14:23:56.009Z</time>
      </trkpt>
      <trkpt lat="45.06622" lon="6.51961">
        <ele>2085</ele>
        <time>2023-12-11T14:25:18.066Z</time>
      </trkpt>
      <trkpt lat="45.06662" lon="6.51904">
        <ele>2089</ele>
        <time>2023-12-11T14:26:17.298Z</time>
      </trkpt>
      <trkpt lat="45.06715" lon="6.51844">
        <ele>2097</ele>
        <time>2023-12-11T14:27:25.592Z</time>
      </trkpt>
      <trkpt lat="45.06766" lon="6.51777">
        <ele>2099</ele>
        <time>2023-12-11T14:28:42.537Z</time>
      </trkpt>
      <trkpt lat="45.06816" lon="6.51735">
        <ele>2111</ele>
        <time>2023-12-11T14:29:42.421Z</time>
      </trkpt>
      <trkpt lat="45.06829" lon="6.51709">
        <ele>2109</ele>
        <time>2023-12-11T14:30:06.439Z</time>
      </trkpt>
      <trkpt lat="45.06844" lon="6.51692">
        <ele>2108</ele>
        <time>2023-12-11T14:30:25.898Z</time>
      </trkpt>
      <trkpt lat="45.0686" lon="6.51689">
        <ele>2111</ele>
        <time>2023-12-11T14:30:42.319Z</time>
      </trkpt>
      <trkpt lat="45.07004" lon="6.5159">
        <ele>2127</ele>
        <time>2023-12-11T14:33:33.091Z</time>
      </trkpt>
      <trkpt lat="45.07096" lon="6.51551">
        <ele>2137</ele>
        <time>2023-12-11T14:35:05.277Z</time>
      </trkpt>
      <trkpt lat="45.07245" lon="6.51465">
        <ele>2139</ele>
        <time>2023-12-11T14:37:28.529Z</time>
      </trkpt>
      <trkpt lat="45.07265" lon="6.51434">
        <ele>2134</ele>
        <time>2023-12-11T14:37:58.065Z</time>
      </trkpt>
      <trkpt lat="45.07368" lon="6.51394">
        <ele>2148</ele>
        <time>2023-12-11T14:39:48.089Z</time>
      </trkpt>
      <trkpt lat="45.07408" lon="6.51365">
        <ele>2147</ele>
        <time>2023-12-11T14:40:28.044Z</time>
      </trkpt>
      <trkpt lat="45.07424" lon="6.5136">
        <ele>2147</ele>
        <time>2023-12-11T14:40:42.724Z</time>
      </trkpt>
      <trkpt lat="45.07459" lon="6.51329">
        <ele>2143</ele>
        <time>2023-12-11T14:41:19.078Z</time>
      </trkpt>
      <trkpt lat="45.07483" lon="6.51327">
        <ele>2145</ele>
        <time>2023-12-11T14:41:40.980Z</time>
      </trkpt>
      <trkpt lat="45.07599" lon="6.51223">
        <ele>2143</ele>
        <time>2023-12-11T14:43:44.588Z</time>
      </trkpt>
      <trkpt lat="45.07628" lon="6.51211">
        <ele>2146</ele>
        <time>2023-12-11T14:44:10.905Z</time>
      </trkpt>
      <trkpt lat="45.07646" lon="6.51194">
        <ele>2145</ele>
        <time>2023-12-11T14:44:30.282Z</time>
      </trkpt>
      <trkpt lat="45.07676" lon="6.51164">
        <ele>2140</ele>
        <time>2023-12-11T14:45:05.533Z</time>
      </trkpt>
      <trkpt lat="45.07781" lon="6.51087">
        <ele>2153</ele>
        <time>2023-12-11T14:47:09.968Z</time>
      </trkpt>
      <trkpt lat="45.07815" lon="6.51079">
        <ele>2155</ele>
        <time>2023-12-11T14:47:43.478Z</time>
      </trkpt>
      <trkpt lat="45.07838" lon="6.51064">
        <ele>2156</ele>
        <time>2023-12-11T14:48:06.467Z</time>
      </trkpt>
      <trkpt lat="45.07906" lon="6.5102">
        <ele>2154</ele>
        <time>2023-12-11T14:49:16.154Z</time>
      </trkpt>
      <trkpt lat="45.07998" lon="6.50981">
        <ele>2161</ele>
        <time>2023-12-11T14:50:52.618Z</time>
      </trkpt>
      <trkpt lat="45.08026" lon="6.50978">
        <ele>2163</ele>
        <time>2023-12-11T14:51:20.658Z</time>
      </trkpt>
      <trkpt lat="45.08033" lon="6.50976">
        <ele>2164</ele>
        <time>2023-12-11T14:51:28.579Z</time>
      </trkpt>
      <trkpt lat="45.08041" lon="6.50978">
        <ele>2164</ele>
        <time>2023-12-11T14:51:35.835Z</time>
      </trkpt>
      <trkpt lat="45.0805" lon="6.50977">
        <ele>2165</ele>
        <time>2023-12-11T14:51:44.030Z</time>
      </trkpt>
      <trkpt lat="45.08058" lon="6.50967">
        <ele>2165</ele>
        <time>2023-12-11T14:51:53.764Z</time>
      </trkpt>
      <trkpt lat="45.08067" lon="6.50938">
        <ele>2164</ele>
        <time>2023-12-11T14:52:13.485Z</time>
      </trkpt>
      <trkpt lat="45.08069" lon="6.50891">
        <ele>2161</ele>
        <time>2023-12-11T14:52:43.300Z</time>
      </trkpt>
      <trkpt lat="45.0808" lon="6.50853">
        <ele>2161</ele>
        <time>2023-12-11T14:53:08.929Z</time>
      </trkpt>
      <trkpt lat="45.08098" lon="6.50845">
        <ele>2161</ele>
        <time>2023-12-11T14:53:26.167Z</time>
      </trkpt>
      <trkpt lat="45.08089" lon="6.50815">
        <ele>2161</ele>
        <time>2023-12-11T14:53:46.775Z</time>
      </trkpt>
    </trkseg>
  </trk>
</gpx>